sensor_id;sensor_type;location;lat;lon;timestamp;P1;durP1;ratioP1;P2;durP2;ratioP2
22955;SDS011;40888;48.148;11.526;2022-09-09T00:00:18;1.15;;;0.93;;
22955;SDS011;40888;48.148;11.526;2022-09-09T00:02:55;1.23;;;1.10;;
22955;SDS011;40888;48.148;11.526;2022-09-09T00:05:28;3.30;;;1.40;;
22955;SDS011;40888;48.148;11.526;2022-09-09T00:07:55;3.05;;;1.00;;
22955;SDS011;40888;48.148;11.526;2022-09-09T00:15:25;2.03;;;1.30;;
22955;SDS011;40888;48.148;11.526;2022-09-09T00:17:56;2.25;;;1.20;;
22955;SDS011;40888;48.148;11.526;2022-09-09T00:20:35;1.00;;;0.98;;
22955;SDS011;40888;48.148;11.526;2022-09-09T00:23:17;2.55;;;1.30;;
22955;SDS011;40888;48.148;11.526;2022-09-09T00:26:02;1.45;;;1.30;;
22955;SDS011;40888;48.148;11.526;2022-09-09T00:28:33;1.15;;;0.90;;
22955;SDS011;40888;48.148;11.526;2022-09-09T00:31:07;2.17;;;1.50;;
22955;SDS011;40888;48.148;11.526;2022-09-09T00:33:36;2.80;;;1.17;;
22955;SDS011;40888;48.148;11.526;2022-09-09T00:36:04;1.05;;;0.93;;
22955;SDS011;40888;48.148;11.526;2022-09-09T00:38:39;1.73;;;0.93;;
22955;SDS011;40888;48.148;11.526;2022-09-09T00:41:09;1.17;;;1.08;;
22955;SDS011;40888;48.148;11.526;2022-09-09T00:43:37;1.85;;;1.30;;
22955;SDS011;40888;48.148;11.526;2022-09-09T00:48:51;1.77;;;1.15;;
22955;SDS011;40888;48.148;11.526;2022-09-09T00:51:29;2.33;;;1.48;;
22955;SDS011;40888;48.148;11.526;2022-09-09T00:56:25;2.03;;;1.10;;
22955;SDS011;40888;48.148;11.526;2022-09-09T01:01:21;2.53;;;1.33;;
22955;SDS011;40888;48.148;11.526;2022-09-09T01:03:52;2.67;;;1.30;;
22955;SDS011;40888;48.148;11.526;2022-09-09T01:06:34;2.17;;;1.17;;
22955;SDS011;40888;48.148;11.526;2022-09-09T01:17:05;2.83;;;1.40;;
22955;SDS011;40888;48.148;11.526;2022-09-09T01:19:37;1.33;;;1.23;;
22955;SDS011;40888;48.148;11.526;2022-09-09T01:25:18;1.50;;;1.40;;
22955;SDS011;40888;48.148;11.526;2022-09-09T01:27:34;1.17;;;1.10;;
22955;SDS011;40888;48.148;11.526;2022-09-09T01:30:02;3.40;;;1.30;;
22955;SDS011;40888;48.148;11.526;2022-09-09T01:32:40;3.27;;;1.63;;
22955;SDS011;40888;48.148;11.526;2022-09-09T01:35:08;1.33;;;1.10;;
22955;SDS011;40888;48.148;11.526;2022-09-09T01:37:37;2.63;;;1.40;;
22955;SDS011;40888;48.148;11.526;2022-09-09T01:40:03;3.70;;;1.10;;
22955;SDS011;40888;48.148;11.526;2022-09-09T01:42:29;1.00;;;1.00;;
22955;SDS011;40888;48.148;11.526;2022-09-09T01:44:56;1.33;;;1.10;;
22955;SDS011;40888;48.148;11.526;2022-09-09T01:47:22;1.13;;;1.02;;
22955;SDS011;40888;48.148;11.526;2022-09-09T01:49:48;2.45;;;1.02;;
22955;SDS011;40888;48.148;11.526;2022-09-09T01:52:14;4.95;;;1.40;;
22955;SDS011;40888;48.148;11.526;2022-09-09T01:54:41;1.23;;;1.02;;
22955;SDS011;40888;48.148;11.526;2022-09-09T02:02:18;2.23;;;1.37;;
22955;SDS011;40888;48.148;11.526;2022-09-09T02:04:47;1.83;;;1.30;;
22955;SDS011;40888;48.148;11.526;2022-09-09T02:07:23;1.47;;;1.20;;
22955;SDS011;40888;48.148;11.526;2022-09-09T02:09:58;1.67;;;1.30;;
22955;SDS011;40888;48.148;11.526;2022-09-09T02:12:25;1.80;;;1.43;;
22955;SDS011;40888;48.148;11.526;2022-09-09T02:14:55;2.20;;;1.43;;
22955;SDS011;40888;48.148;11.526;2022-09-09T02:17:26;6.45;;;1.88;;
22955;SDS011;40888;48.148;11.526;2022-09-09T02:19:54;3.10;;;1.60;;
22955;SDS011;40888;48.148;11.526;2022-09-09T02:22:23;3.08;;;1.73;;
22955;SDS011;40888;48.148;11.526;2022-09-09T02:24:51;4.10;;;1.27;;
22955;SDS011;40888;48.148;11.526;2022-09-09T02:27:20;2.35;;;1.40;;
22955;SDS011;40888;48.148;11.526;2022-09-09T02:29:46;3.25;;;1.15;;
22955;SDS011;40888;48.148;11.526;2022-09-09T02:32:17;1.88;;;1.65;;
22955;SDS011;40888;48.148;11.526;2022-09-09T02:34:45;1.70;;;1.10;;
22955;SDS011;40888;48.148;11.526;2022-09-09T02:37:13;2.60;;;1.63;;
22955;SDS011;40888;48.148;11.526;2022-09-09T02:39:41;2.47;;;1.58;;
22955;SDS011;40888;48.148;11.526;2022-09-09T02:42:07;5.18;;;1.80;;
22955;SDS011;40888;48.148;11.526;2022-09-09T02:44:33;2.00;;;1.40;;
22955;SDS011;40888;48.148;11.526;2022-09-09T02:47:04;4.10;;;1.55;;
22955;SDS011;40888;48.148;11.526;2022-09-09T02:49:40;2.53;;;1.50;;
22955;SDS011;40888;48.148;11.526;2022-09-09T02:52:20;5.53;;;1.40;;
22955;SDS011;40888;48.148;11.526;2022-09-09T02:54:52;1.40;;;1.30;;
22955;SDS011;40888;48.148;11.526;2022-09-09T02:57:24;2.13;;;1.93;;
22955;SDS011;40888;48.148;11.526;2022-09-09T02:59:52;3.57;;;1.50;;
22955;SDS011;40888;48.148;11.526;2022-09-09T03:02:20;1.77;;;1.53;;
22955;SDS011;40888;48.148;11.526;2022-09-09T03:04:46;3.13;;;1.50;;
22955;SDS011;40888;48.148;11.526;2022-09-09T03:07:16;1.87;;;1.60;;
22955;SDS011;40888;48.148;11.526;2022-09-09T03:09:42;2.70;;;1.70;;
22955;SDS011;40888;48.148;11.526;2022-09-09T03:12:09;1.73;;;1.40;;
22955;SDS011;40888;48.148;11.526;2022-09-09T03:14:36;1.50;;;1.40;;
22955;SDS011;40888;48.148;11.526;2022-09-09T03:17:03;2.67;;;1.30;;
22955;SDS011;40888;48.148;11.526;2022-09-09T03:19:30;3.10;;;1.50;;
22955;SDS011;40888;48.148;11.526;2022-09-09T03:21:56;2.90;;;1.60;;
22955;SDS011;40888;48.148;11.526;2022-09-09T03:24:24;2.30;;;1.93;;
22955;SDS011;40888;48.148;11.526;2022-09-09T03:26:51;3.23;;;1.70;;
22955;SDS011;40888;48.148;11.526;2022-09-09T03:29:17;2.00;;;1.27;;
22955;SDS011;40888;48.148;11.526;2022-09-09T03:31:43;2.13;;;1.33;;
22955;SDS011;40888;48.148;11.526;2022-09-09T03:34:10;2.10;;;1.70;;
22955;SDS011;40888;48.148;11.526;2022-09-09T03:36:36;2.20;;;1.37;;
22955;SDS011;40888;48.148;11.526;2022-09-09T03:39:03;3.43;;;1.60;;
22955;SDS011;40888;48.148;11.526;2022-09-09T03:41:29;1.67;;;1.10;;
22955;SDS011;40888;48.148;11.526;2022-09-09T03:43:56;1.53;;;1.43;;
22955;SDS011;40888;48.148;11.526;2022-09-09T03:46:23;2.03;;;1.13;;
22955;SDS011;40888;48.148;11.526;2022-09-09T03:48:49;2.07;;;1.20;;
22955;SDS011;40888;48.148;11.526;2022-09-09T03:51:17;1.63;;;1.40;;
22955;SDS011;40888;48.148;11.526;2022-09-09T03:53:43;3.07;;;1.30;;
22955;SDS011;40888;48.148;11.526;2022-09-09T03:56:09;2.87;;;1.30;;
22955;SDS011;40888;48.148;11.526;2022-09-09T03:58:36;1.47;;;1.37;;
22955;SDS011;40888;48.148;11.526;2022-09-09T04:01:04;3.43;;;1.70;;
22955;SDS011;40888;48.148;11.526;2022-09-09T04:03:31;2.60;;;1.60;;
22955;SDS011;40888;48.148;11.526;2022-09-09T04:05:58;2.27;;;1.60;;
22955;SDS011;40888;48.148;11.526;2022-09-09T04:08:24;1.97;;;1.70;;
22955;SDS011;40888;48.148;11.526;2022-09-09T04:10:51;3.70;;;1.70;;
22955;SDS011;40888;48.148;11.526;2022-09-09T04:13:17;2.50;;;1.60;;
22955;SDS011;40888;48.148;11.526;2022-09-09T04:15:54;2.70;;;1.90;;
22955;SDS011;40888;48.148;11.526;2022-09-09T04:18:20;2.13;;;1.53;;
22955;SDS011;40888;48.148;11.526;2022-09-09T04:20:50;2.20;;;1.47;;
22955;SDS011;40888;48.148;11.526;2022-09-09T04:23:16;3.77;;;1.67;;
22955;SDS011;40888;48.148;11.526;2022-09-09T04:25:46;3.20;;;1.60;;
22955;SDS011;40888;48.148;11.526;2022-09-09T04:28:14;1.57;;;1.47;;
22955;SDS011;40888;48.148;11.526;2022-09-09T04:30:40;1.63;;;1.53;;
22955;SDS011;40888;48.148;11.526;2022-09-09T04:33:07;3.87;;;1.70;;
22955;SDS011;40888;48.148;11.526;2022-09-09T04:35:33;1.97;;;1.73;;
22955;SDS011;40888;48.148;11.526;2022-09-09T04:38:00;1.93;;;1.60;;
22955;SDS011;40888;48.148;11.526;2022-09-09T04:40:28;3.23;;;1.53;;
22955;SDS011;40888;48.148;11.526;2022-09-09T04:42:54;1.80;;;1.70;;
22955;SDS011;40888;48.148;11.526;2022-09-09T04:45:21;1.87;;;1.60;;
22955;SDS011;40888;48.148;11.526;2022-09-09T04:47:47;1.63;;;1.37;;
22955;SDS011;40888;48.148;11.526;2022-09-09T04:50:14;1.50;;;1.40;;
22955;SDS011;40888;48.148;11.526;2022-09-09T04:52:41;4.37;;;1.60;;
22955;SDS011;40888;48.148;11.526;2022-09-09T04:55:07;1.77;;;1.50;;
22955;SDS011;40888;48.148;11.526;2022-09-09T04:57:34;2.50;;;1.33;;
22955;SDS011;40888;48.148;11.526;2022-09-09T05:00:01;2.20;;;2.00;;
22955;SDS011;40888;48.148;11.526;2022-09-09T05:02:27;1.97;;;1.60;;
22955;SDS011;40888;48.148;11.526;2022-09-09T05:04:55;4.43;;;3.23;;
22955;SDS011;40888;48.148;11.526;2022-09-09T05:07:21;1.47;;;1.33;;
22955;SDS011;40888;48.148;11.526;2022-09-09T05:09:47;2.27;;;1.50;;
22955;SDS011;40888;48.148;11.526;2022-09-09T05:12:15;1.87;;;1.30;;
22955;SDS011;40888;48.148;11.526;2022-09-09T05:14:42;3.03;;;1.90;;
22955;SDS011;40888;48.148;11.526;2022-09-09T05:17:08;2.47;;;1.50;;
22955;SDS011;40888;48.148;11.526;2022-09-09T05:19:35;3.27;;;1.70;;
22955;SDS011;40888;48.148;11.526;2022-09-09T05:22:01;1.83;;;1.47;;
22955;SDS011;40888;48.148;11.526;2022-09-09T05:24:27;2.00;;;1.80;;
22955;SDS011;40888;48.148;11.526;2022-09-09T05:26:53;4.27;;;1.80;;
22955;SDS011;40888;48.148;11.526;2022-09-09T05:29:23;2.70;;;1.67;;
22955;SDS011;40888;48.148;11.526;2022-09-09T05:31:49;2.27;;;1.67;;
22955;SDS011;40888;48.148;11.526;2022-09-09T05:34:15;3.87;;;1.73;;
22955;SDS011;40888;48.148;11.526;2022-09-09T05:36:41;3.07;;;2.10;;
22955;SDS011;40888;48.148;11.526;2022-09-09T05:39:07;2.07;;;1.77;;
22955;SDS011;40888;48.148;11.526;2022-09-09T05:41:33;2.13;;;1.70;;
22955;SDS011;40888;48.148;11.526;2022-09-09T05:44:01;2.77;;;1.77;;
22955;SDS011;40888;48.148;11.526;2022-09-09T05:46:28;2.67;;;2.30;;
22955;SDS011;40888;48.148;11.526;2022-09-09T05:48:55;1.87;;;1.53;;
22955;SDS011;40888;48.148;11.526;2022-09-09T05:51:22;4.07;;;2.10;;
22955;SDS011;40888;48.148;11.526;2022-09-09T05:53:49;1.77;;;1.67;;
22955;SDS011;40888;48.148;11.526;2022-09-09T05:56:17;4.20;;;1.90;;
22955;SDS011;40888;48.148;11.526;2022-09-09T05:58:43;3.10;;;1.80;;
22955;SDS011;40888;48.148;11.526;2022-09-09T06:01:16;3.57;;;1.77;;
22955;SDS011;40888;48.148;11.526;2022-09-09T06:03:43;2.50;;;1.60;;
22955;SDS011;40888;48.148;11.526;2022-09-09T06:06:19;1.80;;;1.50;;
22955;SDS011;40888;48.148;11.526;2022-09-09T06:08:46;2.50;;;1.70;;
22955;SDS011;40888;48.148;11.526;2022-09-09T06:11:14;2.03;;;1.60;;
22955;SDS011;40888;48.148;11.526;2022-09-09T06:13:41;3.60;;;1.40;;
22955;SDS011;40888;48.148;11.526;2022-09-09T06:16:11;3.97;;;1.67;;
22955;SDS011;40888;48.148;11.526;2022-09-09T06:18:38;2.17;;;1.50;;
22955;SDS011;40888;48.148;11.526;2022-09-09T06:21:04;2.33;;;1.83;;
22955;SDS011;40888;48.148;11.526;2022-09-09T06:23:32;3.13;;;1.50;;
22955;SDS011;40888;48.148;11.526;2022-09-09T06:26:00;2.43;;;1.70;;
22955;SDS011;40888;48.148;11.526;2022-09-09T06:28:26;1.73;;;1.23;;
22955;SDS011;40888;48.148;11.526;2022-09-09T06:30:59;2.70;;;1.37;;
22955;SDS011;40888;48.148;11.526;2022-09-09T06:33:26;3.33;;;1.57;;
22955;SDS011;40888;48.148;11.526;2022-09-09T06:35:53;2.17;;;1.00;;
22955;SDS011;40888;48.148;11.526;2022-09-09T06:38:22;1.43;;;1.20;;
22955;SDS011;40888;48.148;11.526;2022-09-09T06:40:52;1.63;;;0.93;;
22955;SDS011;40888;48.148;11.526;2022-09-09T06:43:20;2.43;;;1.20;;
22955;SDS011;40888;48.148;11.526;2022-09-09T06:46:20;2.27;;;1.13;;
22955;SDS011;40888;48.148;11.526;2022-09-09T06:48:39;1.63;;;1.20;;
22955;SDS011;40888;48.148;11.526;2022-09-09T06:51:09;3.43;;;1.10;;
22955;SDS011;40888;48.148;11.526;2022-09-09T06:53:39;0.97;;;0.90;;
22955;SDS011;40888;48.148;11.526;2022-09-09T06:58:53;2.07;;;1.20;;
22955;SDS011;40888;48.148;11.526;2022-09-09T07:01:23;1.83;;;1.30;;
22955;SDS011;40888;48.148;11.526;2022-09-09T07:03:51;1.87;;;1.20;;
22955;SDS011;40888;48.148;11.526;2022-09-09T07:06:24;3.47;;;1.60;;
22955;SDS011;40888;48.148;11.526;2022-09-09T07:08:55;1.43;;;1.10;;
22955;SDS011;40888;48.148;11.526;2022-09-09T07:11:21;2.77;;;1.33;;
22955;SDS011;40888;48.148;11.526;2022-09-09T07:13:48;2.30;;;1.40;;
22955;SDS011;40888;48.148;11.526;2022-09-09T07:16:16;3.17;;;1.30;;
22955;SDS011;40888;48.148;11.526;2022-09-09T07:18:42;1.43;;;1.33;;
22955;SDS011;40888;48.148;11.526;2022-09-09T07:21:09;1.77;;;1.37;;
22955;SDS011;40888;48.148;11.526;2022-09-09T07:23:37;1.10;;;1.10;;
22955;SDS011;40888;48.148;11.526;2022-09-09T07:26:14;3.30;;;1.57;;
22955;SDS011;40888;48.148;11.526;2022-09-09T07:28:40;1.63;;;1.10;;
22955;SDS011;40888;48.148;11.526;2022-09-09T07:31:07;1.27;;;1.10;;
22955;SDS011;40888;48.148;11.526;2022-09-09T07:33:38;1.50;;;1.40;;
22955;SDS011;40888;48.148;11.526;2022-09-09T07:36:07;1.10;;;1.10;;
22955;SDS011;40888;48.148;11.526;2022-09-09T07:38:40;2.10;;;1.10;;
22955;SDS011;40888;48.148;11.526;2022-09-09T07:41:08;1.67;;;1.20;;
22955;SDS011;40888;48.148;11.526;2022-09-09T07:43:43;1.75;;;1.23;;
22955;SDS011;40888;48.148;11.526;2022-09-09T07:46:10;3.03;;;1.40;;
22955;SDS011;40888;48.148;11.526;2022-09-09T07:48:37;2.47;;;1.10;;
22955;SDS011;40888;48.148;11.526;2022-09-09T07:51:08;0.95;;;0.90;;
22955;SDS011;40888;48.148;11.526;2022-09-09T07:53:35;1.13;;;1.02;;
22955;SDS011;40888;48.148;11.526;2022-09-09T07:56:03;1.23;;;0.98;;
22955;SDS011;40888;48.148;11.526;2022-09-09T07:58:29;1.48;;;1.00;;
22955;SDS011;40888;48.148;11.526;2022-09-09T08:00:56;3.33;;;1.70;;
22955;SDS011;40888;48.148;11.526;2022-09-09T08:03:22;1.05;;;0.80;;
22955;SDS011;40888;48.148;11.526;2022-09-09T08:05:49;3.83;;;1.52;;
22955;SDS011;40888;48.148;11.526;2022-09-09T08:08:15;0.80;;;0.80;;
22955;SDS011;40888;48.148;11.526;2022-09-09T08:10:41;1.35;;;0.93;;
22955;SDS011;40888;48.148;11.526;2022-09-09T08:13:08;1.88;;;0.95;;
22955;SDS011;40888;48.148;11.526;2022-09-09T08:15:34;1.23;;;1.10;;
22955;SDS011;40888;48.148;11.526;2022-09-09T08:18:00;1.33;;;0.90;;
22955;SDS011;40888;48.148;11.526;2022-09-09T08:20:27;3.72;;;0.95;;
22955;SDS011;40888;48.148;11.526;2022-09-09T08:22:55;2.30;;;1.13;;
22955;SDS011;40888;48.148;11.526;2022-09-09T08:25:21;1.85;;;1.10;;
22955;SDS011;40888;48.148;11.526;2022-09-09T08:27:47;1.77;;;0.82;;
22955;SDS011;40888;48.148;11.526;2022-09-09T08:30:13;1.13;;;0.98;;
22955;SDS011;40888;48.148;11.526;2022-09-09T08:32:39;1.10;;;1.00;;
22955;SDS011;40888;48.148;11.526;2022-09-09T08:35:06;1.88;;;0.95;;
22955;SDS011;40888;48.148;11.526;2022-09-09T08:37:33;5.13;;;1.20;;
22955;SDS011;40888;48.148;11.526;2022-09-09T08:39:59;2.35;;;1.00;;
22955;SDS011;40888;48.148;11.526;2022-09-09T08:52:45;1.90;;;1.27;;
22955;SDS011;40888;48.148;11.526;2022-09-09T08:55:16;1.50;;;1.23;;
22955;SDS011;40888;48.148;11.526;2022-09-09T08:57:49;2.00;;;1.30;;
22955;SDS011;40888;48.148;11.526;2022-09-09T09:00:17;3.33;;;1.75;;
22955;SDS011;40888;48.148;11.526;2022-09-09T09:05:17;1.55;;;1.10;;
22955;SDS011;40888;48.148;11.526;2022-09-09T09:13:04;1.40;;;1.30;;
22955;SDS011;40888;48.148;11.526;2022-09-09T09:15:35;1.80;;;1.27;;
22955;SDS011;40888;48.148;11.526;2022-09-09T09:18:03;3.90;;;1.40;;
22955;SDS011;40888;48.148;11.526;2022-09-09T09:20:33;1.25;;;1.15;;
22955;SDS011;40888;48.148;11.526;2022-09-09T09:23:03;1.83;;;0.98;;
22955;SDS011;40888;48.148;11.526;2022-09-09T09:25:34;1.98;;;0.93;;
22955;SDS011;40888;48.148;11.526;2022-09-09T09:28:17;3.38;;;1.23;;
22955;SDS011;40888;48.148;11.526;2022-09-09T09:30:50;3.70;;;1.10;;
22955;SDS011;40888;48.148;11.526;2022-09-09T09:33:20;1.77;;;0.90;;
22955;SDS011;40888;48.148;11.526;2022-09-09T09:35:49;1.67;;;1.20;;
22955;SDS011;40888;48.148;11.526;2022-09-09T09:38:20;1.23;;;0.80;;
22955;SDS011;40888;48.148;11.526;2022-09-09T09:40:51;2.97;;;0.95;;
22955;SDS011;40888;48.148;11.526;2022-09-09T09:43:36;1.75;;;0.95;;
22955;SDS011;40888;48.148;11.526;2022-09-09T09:46:03;0.80;;;0.80;;
22955;SDS011;40888;48.148;11.526;2022-09-09T09:48:30;1.17;;;0.82;;
22955;SDS011;40888;48.148;11.526;2022-09-09T09:50:58;1.35;;;0.93;;
22955;SDS011;40888;48.148;11.526;2022-09-09T09:53:29;1.85;;;1.02;;
22955;SDS011;40888;48.148;11.526;2022-09-09T09:56:03;1.83;;;1.08;;
22955;SDS011;40888;48.148;11.526;2022-09-09T10:01:26;1.08;;;0.75;;
22955;SDS011;40888;48.148;11.526;2022-09-09T10:08:58;2.00;;;1.20;;
22955;SDS011;40888;48.148;11.526;2022-09-09T10:16:58;3.33;;;1.20;;
22955;SDS011;40888;48.148;11.526;2022-09-09T10:22:02;1.35;;;1.15;;
22955;SDS011;40888;48.148;11.526;2022-09-09T10:37:37;1.27;;;0.75;;
22955;SDS011;40888;48.148;11.526;2022-09-09T10:40:15;1.15;;;1.02;;
22955;SDS011;40888;48.148;11.526;2022-09-09T10:42:44;1.23;;;1.08;;
22955;SDS011;40888;48.148;11.526;2022-09-09T10:48:02;1.10;;;0.98;;
22955;SDS011;40888;48.148;11.526;2022-09-09T10:50:40;2.30;;;1.00;;
22955;SDS011;40888;48.148;11.526;2022-09-09T10:53:13;0.85;;;0.82;;
22955;SDS011;40888;48.148;11.526;2022-09-09T10:55:41;0.90;;;0.90;;
22955;SDS011;40888;48.148;11.526;2022-09-09T10:58:17;2.28;;;1.00;;
22955;SDS011;40888;48.148;11.526;2022-09-09T11:00:47;1.77;;;1.00;;
22955;SDS011;40888;48.148;11.526;2022-09-09T11:03:18;1.92;;;1.02;;
22955;SDS011;40888;48.148;11.526;2022-09-09T11:05:46;1.95;;;1.08;;
22955;SDS011;40888;48.148;11.526;2022-09-09T11:08:19;1.20;;;1.00;;
22955;SDS011;40888;48.148;11.526;2022-09-09T11:10:46;1.42;;;0.82;;
22955;SDS011;40888;48.148;11.526;2022-09-09T11:13:17;1.83;;;0.93;;
22955;SDS011;40888;48.148;11.526;2022-09-09T11:15:46;0.70;;;0.70;;
22955;SDS011;40888;48.148;11.526;2022-09-09T11:18:19;0.70;;;0.70;;
22955;SDS011;40888;48.148;11.526;2022-09-09T11:20:54;2.35;;;0.95;;
22955;SDS011;40888;48.148;11.526;2022-09-09T11:23:33;0.77;;;0.77;;
22955;SDS011;40888;48.148;11.526;2022-09-09T11:26:03;1.15;;;1.05;;
22955;SDS011;40888;48.148;11.526;2022-09-09T11:28:46;1.75;;;0.85;;
22955;SDS011;40888;48.148;11.526;2022-09-09T11:36:58;0.70;;;0.55;;
22955;SDS011;40888;48.148;11.526;2022-09-09T11:44:51;1.27;;;0.63;;
22955;SDS011;40888;48.148;11.526;2022-09-09T11:47:23;1.00;;;0.90;;
22955;SDS011;40888;48.148;11.526;2022-09-09T11:50:07;1.45;;;0.70;;
22955;SDS011;40888;48.148;11.526;2022-09-09T11:52:37;2.88;;;0.70;;
22955;SDS011;40888;48.148;11.526;2022-09-09T11:55:11;0.40;;;0.40;;
22955;SDS011;40888;48.148;11.526;2022-09-09T11:57:38;1.75;;;0.60;;
22955;SDS011;40888;48.148;11.526;2022-09-09T12:00:04;1.92;;;0.70;;
22955;SDS011;40888;48.148;11.526;2022-09-09T12:02:31;2.00;;;0.50;;
22955;SDS011;40888;48.148;11.526;2022-09-09T12:04:59;1.60;;;0.70;;
22955;SDS011;40888;48.148;11.526;2022-09-09T12:07:31;1.75;;;0.70;;
22955;SDS011;40888;48.148;11.526;2022-09-09T12:10:03;0.98;;;0.70;;
22955;SDS011;40888;48.148;11.526;2022-09-09T12:12:31;0.98;;;0.75;;
22955;SDS011;40888;48.148;11.526;2022-09-09T12:15:17;2.72;;;0.73;;
22955;SDS011;40888;48.148;11.526;2022-09-09T12:20:22;2.60;;;0.70;;
22955;SDS011;40888;48.148;11.526;2022-09-09T12:22:59;0.75;;;0.75;;
22955;SDS011;40888;48.148;11.526;2022-09-09T12:31:01;0.98;;;0.60;;
22955;SDS011;40888;48.148;11.526;2022-09-09T12:33:19;0.50;;;0.50;;
22955;SDS011;40888;48.148;11.526;2022-09-09T12:35:51;0.68;;;0.60;;
22955;SDS011;40888;48.148;11.526;2022-09-09T12:38:32;1.77;;;0.93;;
22955;SDS011;40888;48.148;11.526;2022-09-09T12:40:58;1.45;;;0.70;;
22955;SDS011;40888;48.148;11.526;2022-09-09T12:43:26;1.55;;;0.75;;
22955;SDS011;40888;48.148;11.526;2022-09-09T12:45:54;2.30;;;0.90;;
22955;SDS011;40888;48.148;11.526;2022-09-09T12:48:22;1.17;;;0.70;;
22955;SDS011;40888;48.148;11.526;2022-09-09T12:50:50;2.22;;;0.75;;
22955;SDS011;40888;48.148;11.526;2022-09-09T12:53:30;1.90;;;0.82;;
22955;SDS011;40888;48.148;11.526;2022-09-09T12:58:24;1.65;;;0.55;;
22955;SDS011;40888;48.148;11.526;2022-09-09T13:00:51;1.25;;;0.55;;
22955;SDS011;40888;48.148;11.526;2022-09-09T13:03:19;2.13;;;0.90;;
22955;SDS011;40888;48.148;11.526;2022-09-09T13:05:46;0.68;;;0.68;;
22955;SDS011;40888;48.148;11.526;2022-09-09T13:08:13;0.50;;;0.50;;
22955;SDS011;40888;48.148;11.526;2022-09-09T13:13:13;0.95;;;0.40;;
22955;SDS011;40888;48.148;11.526;2022-09-09T13:15:39;3.97;;;0.85;;
22955;SDS011;40888;48.148;11.526;2022-09-09T13:18:06;0.57;;;0.57;;
22955;SDS011;40888;48.148;11.526;2022-09-09T13:20:37;0.95;;;0.80;;
22955;SDS011;40888;48.148;11.526;2022-09-09T13:23:04;1.30;;;0.60;;
22955;SDS011;40888;48.148;11.526;2022-09-09T13:25:31;0.70;;;0.70;;
22955;SDS011;40888;48.148;11.526;2022-09-09T13:27:58;2.50;;;0.90;;
22955;SDS011;40888;48.148;11.526;2022-09-09T13:30:33;0.60;;;0.60;;
22955;SDS011;40888;48.148;11.526;2022-09-09T13:35:35;2.92;;;0.75;;
22955;SDS011;40888;48.148;11.526;2022-09-09T13:38:08;1.70;;;0.70;;
22955;SDS011;40888;48.148;11.526;2022-09-09T13:40:34;1.48;;;0.32;;
22955;SDS011;40888;48.148;11.526;2022-09-09T13:43:02;1.45;;;0.52;;
22955;SDS011;40888;48.148;11.526;2022-09-09T13:45:28;0.75;;;0.40;;
22955;SDS011;40888;48.148;11.526;2022-09-09T13:47:55;1.23;;;0.65;;
22955;SDS011;40888;48.148;11.526;2022-09-09T13:50:25;3.70;;;0.60;;
22955;SDS011;40888;48.148;11.526;2022-09-09T13:52:52;1.23;;;0.50;;
22955;SDS011;40888;48.148;11.526;2022-09-09T13:55:22;1.95;;;0.80;;
22955;SDS011;40888;48.148;11.526;2022-09-09T13:58:02;1.15;;;1.05;;
22955;SDS011;40888;48.148;11.526;2022-09-09T14:00:33;0.70;;;0.70;;
22955;SDS011;40888;48.148;11.526;2022-09-09T14:03:00;0.95;;;0.70;;
22955;SDS011;40888;48.148;11.526;2022-09-09T14:05:30;1.23;;;0.73;;
22955;SDS011;40888;48.148;11.526;2022-09-09T14:07:57;1.40;;;0.55;;
22955;SDS011;40888;48.148;11.526;2022-09-09T14:10:25;1.98;;;0.63;;
22955;SDS011;40888;48.148;11.526;2022-09-09T14:12:51;0.88;;;0.43;;
22955;SDS011;40888;48.148;11.526;2022-09-09T14:15:18;1.80;;;0.80;;
22955;SDS011;40888;48.148;11.526;2022-09-09T14:17:45;1.08;;;0.80;;
22955;SDS011;40888;48.148;11.526;2022-09-09T14:20:11;2.13;;;0.90;;
22955;SDS011;40888;48.148;11.526;2022-09-09T14:22:40;0.93;;;0.57;;
22955;SDS011;40888;48.148;11.526;2022-09-09T14:25:06;1.70;;;0.60;;
22955;SDS011;40888;48.148;11.526;2022-09-09T14:27:33;1.02;;;0.60;;
22955;SDS011;40888;48.148;11.526;2022-09-09T14:29:59;0.90;;;0.60;;
22955;SDS011;40888;48.148;11.526;2022-09-09T14:32:26;2.03;;;0.75;;
22955;SDS011;40888;48.148;11.526;2022-09-09T14:34:52;0.90;;;0.60;;
22955;SDS011;40888;48.148;11.526;2022-09-09T14:37:18;0.55;;;0.50;;
22955;SDS011;40888;48.148;11.526;2022-09-09T14:39:45;3.00;;;0.98;;
22955;SDS011;40888;48.148;11.526;2022-09-09T14:42:13;1.55;;;0.35;;
22955;SDS011;40888;48.148;11.526;2022-09-09T14:44:39;0.65;;;0.65;;
22955;SDS011;40888;48.148;11.526;2022-09-09T14:47:06;1.08;;;0.60;;
22955;SDS011;40888;48.148;11.526;2022-09-09T14:49:33;1.85;;;0.50;;
22955;SDS011;40888;48.148;11.526;2022-09-09T14:51:59;3.15;;;0.90;;
22955;SDS011;40888;48.148;11.526;2022-09-09T14:54:26;0.98;;;0.52;;
22955;SDS011;40888;48.148;11.526;2022-09-09T14:56:53;3.30;;;0.80;;
22955;SDS011;40888;48.148;11.526;2022-09-09T14:59:19;1.73;;;0.60;;
22955;SDS011;40888;48.148;11.526;2022-09-09T15:01:47;0.90;;;0.43;;
22955;SDS011;40888;48.148;11.526;2022-09-09T15:04:13;0.93;;;0.50;;
22955;SDS011;40888;48.148;11.526;2022-09-09T15:06:40;0.85;;;0.50;;
22955;SDS011;40888;48.148;11.526;2022-09-09T15:09:09;0.88;;;0.70;;
22955;SDS011;40888;48.148;11.526;2022-09-09T15:11:36;0.80;;;0.80;;
22955;SDS011;40888;48.148;11.526;2022-09-09T15:14:06;1.17;;;0.60;;
22955;SDS011;40888;48.148;11.526;2022-09-09T15:16:33;2.28;;;0.77;;
22955;SDS011;40888;48.148;11.526;2022-09-09T15:18:59;1.60;;;0.75;;
22955;SDS011;40888;48.148;11.526;2022-09-09T15:21:30;1.95;;;0.80;;
22955;SDS011;40888;48.148;11.526;2022-09-09T15:23:57;0.73;;;0.50;;
22955;SDS011;40888;48.148;11.526;2022-09-09T15:26:24;2.28;;;0.82;;
22955;SDS011;40888;48.148;11.526;2022-09-09T15:28:51;3.25;;;0.80;;
22955;SDS011;40888;48.148;11.526;2022-09-09T15:31:18;0.80;;;0.60;;
22955;SDS011;40888;48.148;11.526;2022-09-09T15:33:48;2.58;;;0.90;;
22955;SDS011;40888;48.148;11.526;2022-09-09T15:36:34;2.08;;;0.80;;
22955;SDS011;40888;48.148;11.526;2022-09-09T15:39:02;1.35;;;0.32;;
22955;SDS011;40888;48.148;11.526;2022-09-09T15:41:28;1.27;;;0.50;;
22955;SDS011;40888;48.148;11.526;2022-09-09T15:43:56;2.72;;;0.82;;
22955;SDS011;40888;48.148;11.526;2022-09-09T15:46:28;0.73;;;0.60;;
22955;SDS011;40888;48.148;11.526;2022-09-09T15:48:55;1.00;;;0.90;;
22955;SDS011;40888;48.148;11.526;2022-09-09T15:51:21;2.72;;;0.60;;
22955;SDS011;40888;48.148;11.526;2022-09-09T15:53:48;2.83;;;0.55;;
22955;SDS011;40888;48.148;11.526;2022-09-09T15:56:15;1.92;;;0.73;;
22955;SDS011;40888;48.148;11.526;2022-09-09T15:58:41;3.53;;;0.90;;
22955;SDS011;40888;48.148;11.526;2022-09-09T16:01:09;1.98;;;0.70;;
22955;SDS011;40888;48.148;11.526;2022-09-09T16:03:40;1.10;;;0.60;;
22955;SDS011;40888;48.148;11.526;2022-09-09T16:06:15;2.00;;;0.85;;
22955;SDS011;40888;48.148;11.526;2022-09-09T16:08:42;1.15;;;1.00;;
22955;SDS011;40888;48.148;11.526;2022-09-09T16:11:10;4.38;;;0.75;;
22955;SDS011;40888;48.148;11.526;2022-09-09T16:13:37;1.67;;;0.90;;
22955;SDS011;40888;48.148;11.526;2022-09-09T16:16:04;1.08;;;0.70;;
22955;SDS011;40888;48.148;11.526;2022-09-09T16:18:34;0.75;;;0.63;;
22955;SDS011;40888;48.148;11.526;2022-09-09T16:21:01;3.67;;;0.93;;
22955;SDS011;40888;48.148;11.526;2022-09-09T16:23:27;2.63;;;0.60;;
22955;SDS011;40888;48.148;11.526;2022-09-09T16:25:54;1.75;;;0.77;;
22955;SDS011;40888;48.148;11.526;2022-09-09T16:28:20;2.45;;;0.65;;
22955;SDS011;40888;48.148;11.526;2022-09-09T16:30:47;2.88;;;0.68;;